Decoded Metar for KGGI (GRINNELL REG in IA, USA) (IATA:GGI) | Meteo·Mobile Aviation Weather
aviador You're here:

KGGI Decoded Metar

GRINNELL REG in IA, USA
Report Time2019-01-18 11:55:00
UTC Time2019-01-18 11:54:52
Flight Rules vfr VFR
Wind050° at 08 kt
W.Decomp.*RWY 13: 1.1 kt HW 7.9 kt LCW
W.Rank050° ranks 32
Current wind is above 050° avg. (7.1)
Visibility9999 m
Phenomena:N/A
Clouds:N/A
Expected CloudBase > 1,200 ft AGL from Temp-Dew spread
CeilingNone
Temp-8°C (ISA -21)
Dew Point-11°C (79% RH)
AAT-14.0°C
QNH1019 hPa
Density Alt-1,765 ft
Elevation1,007 ft
Report Wrong Elevation
Raw Report
KGGI 181155Z AUTO 05008KT 10SM CLR M08/M11 A3009 RMK AO2 T10851108
11081 21111=

Extra information for KGGI:More info

Metar Taf Metar & Taf Last 4 Metars F.Rules Stats Wind Profile Meteogram Temp Stats Airport Information Weather charts Add Link Nearby VenuesMetar ALERT Operation Metar Decoded Social comments

AIRNAV info for KGGI